createdAt,value
2019-04-20T00:00:39.698Z,42.10
2019-04-20T00:03:03.341Z,42.30
2019-04-20T00:05:33.367Z,41.90
2019-04-20T00:08:08.875Z,42.10
2019-04-20T00:10:44.753Z,42.20
2019-04-20T00:13:17.624Z,42.10
2019-04-20T00:15:36.873Z,42.20
2019-04-20T00:18:08.450Z,42.30
2019-04-20T00:20:40.763Z,42.50
2019-04-20T00:23:19.738Z,42.70
2019-04-20T00:26:12.402Z,42.40
2019-04-20T00:28:50.821Z,42.50
2019-04-20T00:31:19.025Z,42.50
2019-04-20T00:33:47.949Z,43.00
2019-04-20T00:36:07.239Z,42.90
2019-04-20T00:38:45.536Z,43.40
2019-04-20T00:41:12.510Z,43.70
2019-04-20T00:43:42.115Z,43.80
2019-04-20T00:46:19.563Z,43.50
2019-04-20T00:48:51.817Z,43.70
2019-04-20T00:51:35.243Z,43.50
2019-04-20T00:53:48.998Z,43.50
2019-04-20T00:56:16.242Z,43.70
2019-04-20T00:58:58.032Z,44.10
2019-04-20T01:01:40.731Z,44.40
2019-04-20T01:04:13.180Z,44.80
2019-04-20T01:06:36.611Z,45.10
2019-04-20T01:09:03.363Z,45.50
2019-04-20T01:11:40.030Z,45.80
2019-04-20T01:14:10.506Z,46.20
2019-04-20T01:16:45.488Z,46.60
2019-04-20T01:19:07.933Z,46.80
2019-04-20T01:21:38.340Z,46.80
2019-04-20T01:24:09.839Z,46.80
2019-04-20T01:26:44.551Z,47.00
2019-04-20T01:29:21.806Z,47.20
2019-04-20T01:31:57.123Z,47.00
2019-04-20T01:34:26.566Z,47.00
2019-04-20T01:37:01.014Z,47.40
2019-04-20T01:39:25.300Z,47.30
2019-04-20T01:41:45.949Z,47.70
2019-04-20T01:44:18.838Z,48.50
2019-04-20T01:46:53.506Z,47.80
2019-04-20T01:49:22.758Z,48.40
2019-04-20T01:51:57.479Z,49.00
2019-04-20T01:54:38.533Z,49.10
2019-04-20T01:57:01.719Z,49.50
2019-04-20T01:59:46.022Z,49.20
2019-04-20T02:02:20.076Z,49.70
2019-04-20T02:04:54.126Z,50.80
2019-04-20T02:07:28.497Z,51.20
2019-04-20T02:09:59.877Z,51.10
2019-04-20T02:12:30.714Z,50.50
2019-04-20T02:15:01.277Z,50.90
2019-04-20T02:17:35.262Z,50.40
2019-04-20T02:20:15.669Z,50.70
2019-04-20T02:22:48.999Z,51.40
2019-04-20T02:25:02.064Z,52.10
2019-04-20T02:27:38.555Z,52.80
2019-04-20T02:30:32.428Z,52.60
2019-04-20T02:33:21.688Z,52.80
2019-04-20T02:35:46.009Z,53.00
2019-04-20T02:38:26.674Z,52.70
2019-04-20T02:40:54.498Z,53.10
2019-04-20T02:43:15.696Z,53.00
2019-04-20T02:45:45.396Z,53.40
2019-04-20T02:48:15.917Z,53.40
2019-04-20T02:50:52.905Z,53.30
2019-04-20T02:53:21.945Z,53.10
2019-04-20T02:58:29.088Z,53.20
2019-04-20T03:00:44.855Z,53.70
2019-04-20T03:03:07.087Z,53.90
2019-04-20T03:05:35.930Z,54.10
2019-04-20T03:08:15.061Z,54.30
2019-04-20T03:10:56.689Z,54.40
2019-04-20T03:13:18.329Z,54.50
2019-04-20T03:15:48.553Z,54.80
2019-04-20T03:18:21.344Z,55.00
2019-04-20T03:20:52.831Z,55.00
2019-04-20T03:26:15.083Z,55.00
2019-04-20T03:28:56.715Z,54.90
2019-04-20T03:32:22.196Z,54.80
2019-04-20T03:34:51.491Z,54.90
2019-04-20T03:39:18.110Z,55.10
2019-04-20T03:41:40.467Z,55.40
2019-04-20T03:44:10.537Z,55.40
2019-04-20T03:46:44.836Z,55.50
2019-04-20T03:49:27.848Z,55.70
2019-04-20T03:51:58.780Z,55.90
2019-04-20T03:54:34.398Z,56.20
2019-04-20T03:57:27.670Z,56.30
2019-04-20T03:59:56.200Z,56.70
2019-04-20T04:05:04.395Z,57.30
2019-04-20T04:07:29.560Z,56.60
2019-04-20T04:10:06.974Z,56.60
2019-04-20T04:12:58.803Z,56.70
2019-04-20T04:15:29.648Z,56.70
2019-04-20T04:18:07.388Z,57.00
2019-04-20T04:20:38.717Z,57.30
2019-04-20T04:23:19.166Z,57.10
2019-04-20T04:25:48.334Z,57.00
2019-04-20T04:28:24.161Z,56.80
2019-04-20T04:30:56.364Z,56.80
2019-04-20T04:33:46.012Z,56.70
2019-04-20T04:35:59.268Z,56.70
2019-04-20T04:38:35.989Z,56.70
2019-04-20T04:41:10.650Z,56.80
2019-04-20T04:43:35.258Z,56.80
2019-04-20T04:45:44.839Z,56.80
2019-04-20T04:48:23.834Z,56.80
2019-04-20T04:50:54.525Z,56.70
2019-04-20T04:53:31.231Z,56.70
2019-04-20T04:55:56.451Z,56.80
2019-04-20T04:58:21.472Z,56.70
2019-04-20T05:00:51.495Z,56.60
2019-04-20T05:03:41.392Z,56.30
2019-04-20T05:06:14.736Z,56.20
2019-04-20T05:08:35.781Z,56.10
2019-04-20T05:10:58.317Z,55.90
2019-04-20T05:13:38.024Z,55.40
2019-04-20T05:16:13.398Z,54.80
2019-04-20T05:19:11.970Z,54.80
2019-04-20T05:21:21.615Z,55.10
2019-04-20T05:23:53.575Z,55.30
2019-04-20T05:26:36.338Z,56.50
2019-04-20T05:28:59.048Z,55.30
2019-04-20T05:31:23.572Z,54.10
2019-04-20T05:34:14.388Z,53.30
2019-04-20T05:36:49.317Z,52.90
2019-04-20T05:39:26.809Z,53.50
2019-04-20T05:41:51.512Z,52.80
2019-04-20T05:44:22.041Z,53.60
2019-04-20T05:47:02.560Z,53.20
2019-04-20T05:49:29.776Z,53.20
2019-04-20T05:52:13.264Z,53.60
2019-04-20T05:54:32.602Z,53.80
2019-04-20T05:57:07.767Z,53.30
2019-04-20T05:59:35.055Z,53.30
2019-04-20T06:02:09.945Z,51.90
2019-04-20T06:04:54.362Z,51.00
2019-04-20T06:07:11.295Z,48.50
2019-04-20T06:09:42.311Z,47.50
2019-04-20T06:12:25.196Z,45.60
2019-04-20T06:14:47.107Z,45.30
2019-04-20T06:17:27.143Z,42.80
2019-04-20T06:19:54.734Z,40.90
2019-04-20T06:22:31.368Z,39.60
2019-04-20T06:25:31.867Z,38.90
2019-04-20T06:27:47.181Z,37.80
2019-04-20T06:30:13.578Z,36.70
2019-04-20T06:33:45.115Z,34.30
2019-04-20T06:38:48.254Z,30.70
2019-04-20T06:41:10.488Z,28.10
2019-04-20T06:43:36.688Z,26.00
2019-04-20T06:46:09.869Z,24.60
2019-04-20T06:48:44.387Z,23.90
2019-04-20T06:51:03.692Z,23.30
2019-04-20T06:53:48.693Z,22.50
2019-04-20T06:56:38.028Z,21.30
2019-04-20T06:59:11.924Z,22.10
2019-04-20T07:01:43.582Z,22.90
2019-04-20T07:06:50.855Z,21.40
2019-04-20T07:09:14.096Z,20.00
2019-04-20T07:11:42.588Z,19.20
2019-04-20T07:14:02.933Z,18.40
2019-04-20T07:16:52.877Z,19.40
2019-04-20T07:19:22.891Z,19.80
2019-04-20T07:22:25.069Z,19.10
2019-04-20T07:24:53.161Z,18.80
2019-04-20T07:27:13.634Z,17.30
2019-04-20T07:29:51.949Z,16.80
2019-04-20T07:32:10.068Z,17.00
2019-04-20T07:34:53.938Z,17.30
2019-04-20T07:38:07.110Z,18.70
2019-04-20T07:40:13.527Z,19.70
2019-04-20T07:42:43.784Z,20.80
2019-04-20T07:45:18.212Z,19.30
2019-04-20T07:47:46.688Z,18.50
2019-04-20T07:50:07.664Z,17.60
2019-04-20T07:52:39.630Z,17.20
2019-04-20T07:57:46.682Z,17.20
2019-04-20T08:00:37.300Z,15.90
2019-04-20T08:03:24.683Z,15.40
2019-04-20T08:05:43.043Z,15.30
2019-04-20T08:08:19.524Z,15.30
2019-04-20T08:10:52.361Z,15.00
2019-04-20T08:13:36.538Z,14.50
2019-04-20T08:15:57.155Z,14.30
2019-04-20T08:18:35.072Z,15.10
2019-04-20T08:20:57.634Z,15.40
2019-04-20T08:23:29.841Z,15.60
2019-04-20T08:25:56.088Z,15.40
2019-04-20T08:28:21.362Z,14.70
2019-04-20T08:31:06.593Z,14.40
2019-04-20T08:34:09.019Z,13.20
2019-04-20T08:36:26.921Z,12.90
2019-04-20T08:39:15.027Z,13.40
2019-04-20T08:41:28.688Z,12.70
2019-04-20T08:44:06.426Z,12.30
2019-04-20T08:46:38.356Z,12.00
2019-04-20T08:49:03.410Z,13.20
2019-04-20T08:51:41.523Z,13.30
2019-04-20T08:54:02.343Z,13.80
2019-04-20T08:56:29.103Z,14.20
2019-04-20T08:58:48.257Z,13.70
2019-04-20T09:01:22.922Z,13.90
2019-04-20T09:03:58.830Z,13.10
2019-04-20T09:06:37.166Z,12.80
2019-04-20T09:09:19.425Z,12.70
2019-04-20T09:11:47.511Z,12.80
2019-04-20T09:13:59.124Z,13.20
2019-04-20T09:16:35.677Z,13.50
2019-04-20T09:19:04.673Z,13.60
2019-04-20T09:21:38.757Z,13.60
2019-04-20T09:24:29.877Z,13.30
2019-04-20T09:26:47.768Z,12.90
2019-04-20T09:29:17.019Z,12.70
2019-04-20T09:31:50.241Z,11.80
2019-04-20T09:34:37.018Z,12.40
2019-04-20T09:37:24.690Z,12.60
2019-04-20T09:39:44.986Z,12.70
2019-04-20T09:42:23.033Z,12.50
2019-04-20T09:44:55.986Z,12.30
2019-04-20T09:47:32.638Z,12.00
2019-04-20T09:50:08.876Z,12.60
2019-04-20T09:52:38.180Z,12.50
2019-04-20T09:55:16.341Z,12.50
2019-04-20T09:57:51.255Z,12.30
2019-04-20T10:00:23.562Z,11.50
2019-04-20T10:02:39.221Z,11.70
2019-04-20T10:05:09.411Z,11.80
2019-04-20T10:07:40.668Z,11.90
2019-04-20T10:10:22.688Z,12.00
2019-04-20T10:12:41.879Z,11.90
2019-04-20T10:15:17.941Z,12.00
2019-04-20T10:17:43.682Z,12.40
2019-04-20T10:20:20.807Z,12.60
2019-04-20T10:22:44.722Z,12.60
2019-04-20T10:25:14.963Z,13.60
2019-04-20T10:27:45.429Z,13.80
2019-04-20T10:30:15.065Z,14.20
2019-04-20T10:32:47.185Z,13.70
2019-04-20T10:35:17.507Z,14.00
2019-04-20T10:37:49.429Z,14.20
2019-04-20T10:40:35.776Z,14.00
2019-04-20T10:42:50.210Z,14.10
2019-04-20T10:45:19.593Z,15.10
2019-04-20T10:47:49.026Z,14.70
2019-04-20T10:50:18.825Z,15.00
2019-04-20T10:52:48.266Z,15.40
2019-04-20T10:55:18.697Z,14.70
2019-04-20T10:57:49.288Z,15.00
2019-04-20T11:00:23.711Z,14.70
2019-04-20T11:02:53.371Z,15.20
2019-04-20T11:05:22.678Z,15.40
2019-04-20T11:07:52.666Z,15.60
2019-04-20T11:10:27.223Z,15.40
2019-04-20T11:12:53.540Z,15.80
2019-04-20T11:15:24.087Z,16.10
2019-04-20T11:17:55.293Z,16.20
2019-04-20T11:20:25.739Z,15.90
2019-04-20T11:22:56.033Z,15.90
2019-04-20T11:25:26.251Z,16.00
2019-04-20T11:27:56.412Z,16.20
2019-04-20T11:30:27.915Z,16.60
2019-04-20T11:32:58.073Z,16.50
2019-04-20T11:35:34.429Z,16.20
2019-04-20T11:37:59.202Z,16.20
2019-04-20T11:40:29.236Z,16.10
2019-04-20T11:42:59.536Z,16.10
2019-04-20T11:45:30.823Z,16.40
2019-04-20T11:48:01.154Z,15.40
2019-04-20T11:50:31.619Z,15.30
2019-04-20T11:53:01.514Z,15.30
2019-04-20T11:55:31.157Z,14.90
2019-04-20T11:58:01.703Z,14.80
2019-04-20T12:00:53.974Z,14.20
2019-04-20T12:03:25.027Z,14.20
2019-04-20T12:05:53.237Z,14.50
2019-04-20T12:08:18.787Z,15.20
2019-04-20T12:10:51.713Z,15.10
2019-04-20T12:13:20.452Z,14.90
2019-04-20T12:15:50.046Z,14.70
2019-04-20T12:18:19.791Z,15.00
2019-04-20T12:20:50.456Z,15.50
2019-04-20T12:23:20.321Z,15.10
2019-04-20T12:25:52.236Z,15.20
2019-04-20T12:28:22.065Z,15.60
2019-04-20T12:30:51.578Z,15.70
2019-04-20T12:33:22.089Z,15.90
2019-04-20T12:35:54.088Z,15.10
2019-04-20T12:38:25.194Z,14.60
2019-04-20T12:40:55.681Z,14.80
2019-04-20T12:43:25.549Z,15.70
2019-04-20T12:45:55.868Z,15.90
2019-04-20T12:48:25.920Z,15.90
2019-04-20T12:50:55.581Z,15.40
2019-04-20T12:53:26.528Z,16.50
2019-04-20T12:55:57.111Z,16.60
2019-04-20T12:58:26.708Z,16.30
2019-04-20T13:00:56.554Z,16.30
2019-04-20T13:03:25.930Z,16.00
2019-04-20T13:05:56.150Z,16.20
2019-04-20T13:08:33.648Z,16.30
2019-04-20T13:10:58.555Z,15.60
2019-04-20T13:13:30.473Z,16.30
2019-04-20T13:16:05.552Z,16.50
2019-04-20T13:18:39.513Z,16.70
2019-04-20T13:21:09.287Z,16.40
2019-04-20T13:23:39.133Z,16.60
2019-04-20T13:26:10.414Z,16.40
2019-04-20T13:28:41.188Z,16.40
2019-04-20T13:31:11.644Z,16.80
2019-04-20T13:33:41.604Z,16.70
2019-04-20T13:36:12.381Z,16.60
2019-04-20T13:38:44.066Z,16.30
2019-04-20T13:41:13.879Z,16.50
2019-04-20T13:43:43.901Z,16.40
2019-04-20T13:46:13.641Z,16.60
2019-04-20T13:48:44.727Z,15.90
2019-04-20T13:51:14.727Z,16.00
2019-04-20T13:53:45.383Z,16.20
2019-04-20T13:56:16.174Z,16.00
2019-04-20T13:58:47.743Z,16.00
2019-04-20T14:01:19.039Z,15.60
2019-04-20T14:03:50.483Z,15.80
2019-04-20T14:06:20.675Z,15.50
2019-04-20T14:08:51.430Z,15.50
2019-04-20T14:11:21.138Z,15.40
2019-04-20T14:13:57.979Z,15.60
2019-04-20T14:16:23.112Z,15.10
2019-04-20T14:18:53.323Z,15.60
2019-04-20T14:21:23.917Z,15.90
2019-04-20T14:23:54.862Z,16.10
2019-04-20T14:26:25.154Z,16.10
2019-04-20T14:28:54.884Z,16.20
2019-04-20T14:31:25.779Z,16.00
2019-04-20T14:33:55.551Z,15.80
2019-04-20T14:36:25.132Z,15.50
2019-04-20T14:38:56.061Z,15.40
2019-04-20T14:41:26.428Z,15.70
2019-04-20T14:43:57.214Z,16.00
2019-04-20T14:46:27.931Z,15.70
2019-04-20T14:48:58.758Z,16.10
2019-04-20T14:51:29.767Z,16.40
2019-04-20T14:53:59.321Z,16.40
2019-04-20T14:56:29.377Z,16.40
2019-04-20T14:59:03.352Z,16.70
2019-04-20T15:01:40.817Z,17.40
2019-04-20T15:04:16.693Z,17.10
2019-04-20T15:06:42.605Z,17.20
2019-04-20T15:09:12.864Z,17.10
2019-04-20T15:11:44.282Z,16.70
2019-04-20T15:14:14.589Z,16.70
2019-04-20T15:16:44.604Z,17.10
2019-04-20T15:19:15.747Z,17.20
2019-04-20T15:21:49.381Z,17.40
2019-04-20T15:24:19.684Z,17.20
2019-04-20T15:26:49.256Z,16.50
2019-04-20T15:29:20.045Z,16.00
2019-04-20T15:31:50.131Z,15.60
2019-04-20T15:34:21.130Z,15.40
2019-04-20T15:36:51.909Z,14.80
2019-04-20T15:39:23.178Z,14.60
2019-04-20T15:41:53.625Z,14.80
2019-04-20T15:44:25.158Z,14.70
2019-04-20T15:46:55.270Z,14.80
2019-04-20T15:49:26.220Z,14.80
2019-04-20T15:51:55.979Z,14.50
2019-04-20T15:54:27.502Z,14.50
2019-04-20T15:57:02.485Z,14.70
2019-04-20T15:59:28.529Z,15.00
2019-04-20T16:02:03.113Z,14.80
2019-04-20T16:04:50.698Z,15.20
2019-04-20T16:07:21.428Z,15.50
2019-04-20T16:09:51.664Z,16.50
2019-04-20T16:12:22.730Z,17.20
2019-04-20T16:14:53.515Z,17.90
2019-04-20T16:17:30.793Z,18.30
2019-04-20T16:20:03.885Z,18.70
2019-04-20T16:22:28.873Z,18.70
2019-04-20T16:25:15.045Z,18.80
2019-04-20T16:27:45.633Z,19.30
2019-04-20T16:30:15.731Z,19.40
2019-04-20T16:32:45.338Z,19.70
2019-04-20T16:35:16.213Z,20.10
2019-04-20T16:37:46.503Z,20.60
2019-04-20T16:40:17.686Z,20.50
2019-04-20T16:42:48.016Z,20.60
2019-04-20T16:45:19.042Z,20.90
2019-04-20T16:47:48.633Z,21.20
2019-04-20T16:50:19.309Z,21.80
2019-04-20T16:52:48.954Z,21.80
2019-04-20T16:55:18.864Z,22.10
2019-04-20T16:57:51.195Z,22.70
2019-04-20T17:00:21.138Z,22.90
2019-04-20T17:02:52.148Z,22.80
2019-04-20T17:05:22.991Z,23.10
2019-04-20T17:07:55.373Z,23.20
2019-04-20T17:10:26.242Z,23.40
2019-04-20T17:12:56.132Z,23.40
2019-04-20T17:15:25.888Z,23.80
2019-04-20T17:17:57.077Z,23.90
2019-04-20T17:20:27.546Z,24.00
2019-04-20T17:22:58.390Z,24.20
2019-04-20T17:25:28.077Z,24.50
2019-04-20T17:28:06.869Z,24.70
2019-04-20T17:30:54.718Z,24.70
2019-04-20T17:33:27.879Z,24.80
2019-04-20T17:36:04.558Z,25.20
2019-04-20T17:38:34.777Z,25.20
2019-04-20T17:41:14.653Z,26.00
2019-04-20T17:43:42.433Z,25.60
2019-04-20T17:46:11.348Z,26.40
2019-04-20T17:48:42.901Z,25.60
2019-04-20T17:51:23.507Z,25.80
2019-04-20T17:53:52.847Z,26.00
2019-04-20T17:56:17.435Z,26.30
2019-04-20T17:58:48.027Z,26.50
2019-04-20T18:01:32.842Z,26.80
2019-04-20T18:04:24.511Z,26.90
2019-04-20T18:06:43.758Z,27.10
2019-04-20T18:09:06.629Z,27.50
2019-04-20T18:11:37.337Z,27.90
2019-04-20T18:14:16.926Z,27.70
2019-04-20T18:16:50.852Z,27.80
2019-04-20T18:19:11.611Z,27.90
2019-04-20T18:21:41.499Z,28.00
2019-04-20T18:24:24.241Z,28.00
2019-04-20T18:26:59.242Z,28.40
2019-04-20T18:29:32.669Z,28.40
2019-04-20T18:31:49.349Z,28.70
2019-04-20T18:34:38.683Z,28.90
2019-04-20T18:37:12.910Z,28.80
2019-04-20T18:39:46.171Z,29.10
2019-04-20T18:42:19.554Z,29.00
2019-04-20T18:45:03.870Z,29.30
2019-04-20T18:47:33.173Z,29.10
2019-04-20T18:49:53.822Z,29.10
2019-04-20T18:52:15.683Z,29.20
2019-04-20T18:54:48.429Z,29.10
2019-04-20T18:57:21.768Z,29.10
2019-04-20T18:59:54.149Z,29.40
2019-04-20T19:02:26.995Z,29.50
2019-04-20T19:04:50.363Z,29.60
2019-04-20T19:07:20.086Z,29.70
2019-04-20T19:09:54.137Z,29.80
2019-04-20T19:12:30.108Z,29.90
2019-04-20T19:15:05.026Z,30.10
2019-04-20T19:17:49.991Z,30.60
2019-04-20T19:20:11.906Z,30.10
2019-04-20T19:22:41.985Z,30.20
2019-04-20T19:25:18.352Z,30.30
2019-04-20T19:27:48.875Z,30.40
2019-04-20T19:30:24.704Z,30.90
2019-04-20T19:33:05.015Z,31.20
2019-04-20T19:35:32.213Z,31.90
2019-04-20T19:37:58.608Z,31.30
2019-04-20T19:40:36.018Z,31.20
2019-04-20T19:43:02.463Z,31.50
2019-04-20T19:46:07.024Z,31.70
2019-04-20T19:48:09.526Z,31.80
2019-04-20T19:50:53.512Z,31.80
2019-04-20T19:53:24.668Z,31.80
2019-04-20T19:55:43.911Z,31.80
2019-04-20T19:58:14.097Z,31.70
2019-04-20T20:00:48.130Z,32.10
2019-04-20T20:03:17.424Z,32.40
2019-04-20T20:05:50.815Z,32.70
2019-04-20T20:08:23.858Z,32.90
2019-04-20T20:10:52.466Z,33.00
2019-04-20T20:13:27.641Z,33.10
2019-04-20T20:16:02.410Z,33.20
2019-04-20T20:18:39.283Z,33.20
2019-04-20T20:21:12.346Z,33.50
2019-04-20T20:23:28.328Z,33.60
2019-04-20T20:25:59.222Z,33.60
2019-04-20T20:28:39.586Z,33.70
2019-04-20T20:31:08.648Z,33.90
2019-04-20T20:33:44.770Z,33.70
2019-04-20T20:36:11.382Z,34.10
2019-04-20T20:38:41.220Z,33.90
2019-04-20T20:41:15.155Z,34.00
2019-04-20T20:43:51.084Z,34.30
2019-04-20T20:46:19.420Z,34.20
2019-04-20T20:49:04.936Z,34.30
2019-04-20T20:51:34.456Z,34.60
2019-04-20T20:53:54.626Z,34.70
2019-04-20T20:56:22.342Z,34.80
2019-04-20T20:58:57.854Z,34.70
2019-04-20T21:01:23.777Z,35.10
2019-04-20T21:03:51.055Z,35.10
2019-04-20T21:06:20.248Z,35.20
2019-04-20T21:08:54.266Z,35.80
2019-04-20T21:11:26.188Z,36.10
2019-04-20T21:13:54.039Z,36.50
2019-04-20T21:16:26.666Z,36.30
2019-04-20T21:19:15.885Z,36.40
2019-04-20T21:21:38.489Z,36.50
2019-04-20T21:24:03.897Z,36.50
2019-04-20T21:26:35.664Z,36.80
2019-04-20T21:29:01.893Z,36.90
2019-04-20T21:31:32.653Z,37.10
2019-04-20T21:34:08.654Z,36.90
2019-04-20T21:36:34.801Z,37.10
2019-04-20T21:39:08.738Z,37.50
2019-04-20T21:41:41.716Z,37.50
2019-04-20T21:44:15.633Z,37.80
2019-04-20T21:46:46.670Z,37.90
2019-04-20T21:49:27.775Z,37.90
2019-04-20T21:51:50.327Z,37.80
2019-04-20T21:54:14.199Z,37.70
2019-04-20T21:56:49.962Z,37.80
2019-04-20T21:59:24.441Z,38.00
2019-04-20T22:01:56.377Z,38.10
2019-04-20T22:04:20.024Z,38.10
2019-04-20T22:06:50.137Z,38.10
2019-04-20T22:09:25.165Z,38.40
2019-04-20T22:11:53.901Z,38.70
2019-04-20T22:14:26.563Z,39.00
2019-04-20T22:16:56.834Z,39.20
2019-04-20T22:19:36.690Z,39.20
2019-04-20T22:22:05.572Z,39.60
2019-04-20T22:24:44.966Z,39.80
2019-04-20T22:27:09.913Z,39.70
2019-04-20T22:29:32.292Z,39.50
2019-04-20T22:32:08.681Z,39.30
2019-04-20T22:34:33.719Z,39.20
2019-04-20T22:37:04.577Z,38.90
2019-04-20T22:39:45.679Z,39.20
2019-04-20T22:42:13.347Z,39.30
2019-04-20T22:44:43.197Z,39.20
2019-04-20T22:47:20.785Z,39.40
2019-04-20T22:49:59.751Z,39.60
2019-04-20T22:52:32.533Z,39.90
2019-04-20T22:55:01.125Z,40.00
2019-04-20T22:57:31.753Z,40.40
2019-04-20T22:59:56.871Z,41.00
2019-04-20T23:02:22.654Z,41.30
2019-04-20T23:04:53.041Z,41.50
2019-04-20T23:07:22.997Z,41.50
2019-04-20T23:09:54.971Z,41.80
2019-04-20T23:12:25.700Z,41.80
2019-04-20T23:14:56.345Z,41.80
2019-04-20T23:17:33.547Z,42.00
2019-04-20T23:20:01.928Z,42.10
2019-04-20T23:22:36.898Z,42.10
2019-04-20T23:25:00.663Z,42.10
2019-04-20T23:27:32.093Z,42.30
2019-04-20T23:30:03.635Z,42.40
2019-04-20T23:32:33.826Z,42.70
2019-04-20T23:35:09.145Z,42.90
2019-04-20T23:37:37.014Z,43.10
2019-04-20T23:40:09.937Z,43.20
2019-04-20T23:42:45.555Z,43.40
2019-04-20T23:45:15.140Z,43.70
2019-04-20T23:47:52.394Z,43.80
2019-04-20T23:50:37.142Z,44.10
2019-04-20T23:53:05.493Z,44.30
2019-04-20T23:55:19.462Z,44.40
2019-04-20T23:57:55.907Z,44.50
